Terminal Aerodrome Forecast
Issued by NWS

Home | Current Version | Previous Version | Text Only | Print | Product List | Glossary On
Versions: 1 2 3 4 5 6 7 8 9 10 11 12
916
FTPA31 PHFO 232342
TAFHJH
TAF
PHJH 232342Z 2400/2424 06023G33KT P6SM VCSH SCT025 BKN040
     FM240600 06012G18KT P6SM VCSH SCT030 BKN050
     FM242000 06021G31KT P6SM VCSH SCT025 BKN040
      AMD NOT SKED AFT 240400=

USA.gov is the U.S. government's official web portal to all federal, state and local government web resources and services.